Terminal Aerodrome Forecast
Issued by NWS

Home | Current Version | Previous Version | Text Only | Print | Product List | Glossary On
Versions: 1 2 3 4 5 6 7 8 9 10 11 12 13 14 15 16 17
000
FTUS45 KRIW 270533
TAFCPR
TAF
KCPR 270533Z 2706/2806 34007KT P6SM VCSH SCT012 BKN025
      TEMPO 2708/2711 -SHRA BKN012
     FM271100 32007KT P6SM VCFG SCT007 BKN060
     FM271400 30007KT P6SM SCT060
     FM271900 31012G18KT P6SM SCT060 BKN150
     FM280100 28008KT P6SM BKN110=

USA.gov is the U.S. government's official web portal to all federal, state and local government web resources and services.